createdAt,value
2019-04-28T00:03:41.959Z,4.43
2019-04-28T00:07:46.020Z,5.47
2019-04-28T00:11:51.614Z,5.70
2019-04-28T00:15:55.940Z,6.27
2019-04-28T00:20:01.597Z,3.90
2019-04-28T00:24:24.883Z,3.83
2019-04-28T00:28:29.063Z,3.40
2019-04-28T00:32:44.739Z,2.90
2019-04-28T00:36:54.585Z,4.40
2019-04-28T00:40:58.706Z,4.07
2019-04-28T00:45:03.030Z,3.10
2019-04-28T00:49:07.011Z,3.27
2019-04-28T00:53:11.648Z,3.47
2019-04-28T00:57:16.039Z,2.43
2019-04-28T01:01:47.800Z,2.53
2019-04-28T01:05:51.926Z,5.20
2019-04-28T01:09:56.091Z,2.80
2019-04-28T01:14:01.726Z,4.63
2019-04-28T01:18:15.393Z,6.33
2019-04-28T01:22:20.183Z,3.27
2019-04-28T01:26:24.358Z,4.57
2019-04-28T01:30:50.039Z,6.80
2019-04-28T01:34:55.589Z,7.73
2019-04-28T01:39:00.006Z,5.43
2019-04-28T01:43:04.129Z,3.60
2019-04-28T01:47:08.116Z,2.63
2019-04-28T01:51:12.133Z,7.27
2019-04-28T01:55:16.342Z,3.17
2019-04-28T01:59:20.440Z,3.00
2019-04-28T02:03:24.819Z,5.17
2019-04-28T02:07:32.642Z,1.80
2019-04-28T02:11:34.706Z,4.07
2019-04-28T02:15:40.079Z,3.13
2019-04-28T02:19:44.219Z,3.73
2019-04-28T02:23:49.300Z,3.00
2019-04-28T02:27:56.962Z,4.77
2019-04-28T02:32:02.121Z,2.23
2019-04-28T02:36:08.715Z,3.37
2019-04-28T02:40:11.953Z,4.67
2019-04-28T02:44:16.032Z,4.00
2019-04-28T02:48:23.662Z,4.53
2019-04-28T02:52:46.885Z,1.30
2019-04-28T02:56:51.234Z,1.75
2019-04-28T03:01:09.436Z,5.37
2019-04-28T03:05:01.140Z,3.20
2019-04-28T03:09:05.829Z,1.70
2019-04-28T03:13:10.821Z,2.30
2019-04-28T03:17:15.886Z,1.53
2019-04-28T03:21:21.493Z,2.87
2019-04-28T03:25:34.429Z,4.00
2019-04-28T03:29:44.025Z,5.93
2019-04-28T03:33:53.784Z,4.83
2019-04-28T03:37:54.145Z,3.73
2019-04-28T03:42:00.152Z,2.27
2019-04-28T03:46:10.540Z,1.73
2019-04-28T03:50:14.794Z,3.23
2019-04-28T03:54:20.410Z,3.23
2019-04-28T03:58:24.516Z,3.03
2019-04-28T04:02:31.181Z,3.83
2019-04-28T04:06:35.758Z,1.77
2019-04-28T04:10:46.543Z,2.63
2019-04-28T04:15:14.797Z,3.63
2019-04-28T04:19:20.355Z,1.93
2019-04-28T04:23:24.638Z,5.50
2019-04-28T04:27:30.916Z,2.93
2019-04-28T04:31:34.292Z,3.70
2019-04-28T04:35:41.202Z,3.97
2019-04-28T04:39:45.223Z,7.00
2019-04-28T04:43:51.336Z,4.00
2019-04-28T04:47:55.034Z,3.33
2019-04-28T04:52:00.379Z,2.57
2019-04-28T04:56:04.742Z,10.10
2019-04-28T05:00:11.594Z,2.37
2019-04-28T05:04:23.454Z,5.17
2019-04-28T05:08:27.766Z,3.10
2019-04-28T05:12:31.819Z,2.03
2019-04-28T05:16:36.098Z,3.10
2019-04-28T05:25:15.386Z,3.10
2019-04-28T05:29:26.434Z,3.00
2019-04-28T05:33:46.298Z,5.03
2019-04-28T05:37:50.343Z,7.43
2019-04-28T05:41:54.430Z,4.93
2019-04-28T05:46:00.173Z,3.50
2019-04-28T05:50:11.638Z,7.30
2019-04-28T05:54:25.607Z,4.53
2019-04-28T05:58:40.070Z,5.43
2019-04-28T06:02:55.899Z,4.73
2019-04-28T06:06:53.984Z,7.03
2019-04-28T06:10:59.796Z,4.77
2019-04-28T06:15:04.435Z,6.67
2019-04-28T06:19:10.285Z,6.67
2019-04-28T06:23:14.634Z,8.87
2019-04-28T06:27:18.925Z,5.17
2019-04-28T06:31:23.049Z,5.23
2019-04-28T06:35:27.190Z,3.40
2019-04-28T06:39:32.092Z,6.47
2019-04-28T06:43:36.318Z,2.33
2019-04-28T06:47:40.713Z,2.70
2019-04-28T06:51:45.024Z,2.30
2019-04-28T06:55:49.019Z,2.83
2019-04-28T06:59:53.027Z,2.27
2019-04-28T07:03:57.261Z,3.50
2019-04-28T07:08:01.393Z,2.67
2019-04-28T07:12:05.497Z,1.20
2019-04-28T07:16:09.490Z,1.53
2019-04-28T07:20:29.749Z,1.60
2019-04-28T07:24:33.886Z,3.00
2019-04-28T07:28:37.968Z,1.33
2019-04-28T07:32:42.071Z,3.97
2019-04-28T07:36:46.112Z,2.57
2019-04-28T07:40:50.170Z,1.77
2019-04-28T07:44:57.487Z,4.67
2019-04-28T07:49:01.434Z,3.30
2019-04-28T07:53:12.851Z,2.03
2019-04-28T07:57:16.840Z,2.67
2019-04-28T08:01:20.875Z,2.40
2019-04-28T08:05:24.961Z,1.87
2019-04-28T08:09:29.127Z,3.30
2019-04-28T08:13:33.177Z,1.00
2019-04-28T08:17:37.313Z,3.43
2019-04-28T08:21:41.637Z,2.03
2019-04-28T08:25:45.897Z,1.50
2019-04-28T08:29:58.388Z,1.57
2019-04-28T08:34:02.471Z,3.03
2019-04-28T08:38:06.497Z,1.90
2019-04-28T08:42:10.574Z,2.10
2019-04-28T08:46:14.544Z,3.07
2019-04-28T08:50:18.657Z,1.63
2019-04-28T08:54:22.669Z,2.27
2019-04-28T08:58:26.807Z,1.30
2019-04-28T09:02:30.885Z,1.07
2019-04-28T09:06:34.965Z,0.83
2019-04-28T09:10:40.102Z,0.63
2019-04-28T09:14:44.157Z,2.30
2019-04-28T09:18:48.282Z,1.03
2019-04-28T09:22:52.678Z,1.17
2019-04-28T09:26:56.713Z,1.73
2019-04-28T09:31:00.889Z,1.10
2019-04-28T09:35:05.078Z,1.43
2019-04-28T09:39:11.465Z,1.70
2019-04-28T09:43:20.968Z,1.00
2019-04-28T09:47:24.932Z,1.83
2019-04-28T09:51:31.366Z,1.13
2019-04-28T09:55:35.352Z,1.37
2019-04-28T09:59:39.381Z,1.43
2019-04-28T10:03:43.575Z,2.07
2019-04-28T10:07:47.830Z,1.00
2019-04-28T10:11:52.017Z,1.03
2019-04-28T10:15:56.065Z,1.93
2019-04-28T10:20:00.140Z,0.80
2019-04-28T10:24:04.160Z,0.70
2019-04-28T10:28:08.356Z,1.27
2019-04-28T10:32:12.268Z,1.70
2019-04-28T10:36:16.393Z,0.63
2019-04-28T10:40:50.384Z,0.40
2019-04-28T10:44:54.449Z,1.40
2019-04-28T10:48:59.009Z,1.33
2019-04-28T10:53:03.034Z,0.33
2019-04-28T10:57:07.198Z,0.30
2019-04-28T11:01:11.319Z,0.60
2019-04-28T11:05:20.253Z,0.80
2019-04-28T11:09:30.963Z,0.83
2019-04-28T11:13:34.880Z,0.73
2019-04-28T11:17:40.221Z,0.97
2019-04-28T11:21:44.171Z,0.63
2019-04-28T11:25:48.483Z,0.60
2019-04-28T11:29:52.628Z,0.63
2019-04-28T11:34:04.844Z,0.50
2019-04-28T11:38:08.962Z,0.20
2019-04-28T11:42:13.328Z,0.40
2019-04-28T11:46:19.228Z,1.47
2019-04-28T11:50:23.343Z,0.50
2019-04-28T11:54:27.349Z,1.85
2019-04-28T11:58:32.540Z,0.83
2019-04-28T12:02:36.789Z,0.30
2019-04-28T12:06:40.973Z,0.23
2019-04-28T12:10:50.544Z,0.62
2019-04-28T12:15:02.006Z,1.02
2019-04-28T12:19:13.672Z,0.80
2019-04-28T12:23:17.939Z,0.23
2019-04-28T12:27:22.116Z,0.28
2019-04-28T12:31:26.273Z,0.55
2019-04-28T12:35:30.308Z,0.35
2019-04-28T12:39:34.427Z,0.50
2019-04-28T12:43:38.592Z,0.28
2019-04-28T12:47:42.811Z,0.98
2019-04-28T12:51:48.202Z,0.57
2019-04-28T12:55:52.392Z,0.20
2019-04-28T13:00:03.097Z,0.30
2019-04-28T13:04:15.537Z,0.35
2019-04-28T13:08:19.672Z,0.50
2019-04-28T13:12:23.708Z,0.90
2019-04-28T13:16:27.690Z,1.23
2019-04-28T13:20:31.664Z,0.30
2019-04-28T13:24:35.743Z,1.63
2019-04-28T13:28:39.785Z,1.30
2019-04-28T13:32:43.876Z,0.50
2019-04-28T13:36:47.983Z,1.10
2019-04-28T13:40:53.168Z,0.43
2019-04-28T13:45:07.847Z,0.40
2019-04-28T13:49:13.608Z,0.50
2019-04-28T13:53:18.672Z,0.40
2019-04-28T13:57:22.798Z,0.30
2019-04-28T14:01:46.123Z,0.30
2019-04-28T14:05:56.172Z,0.30
2019-04-28T14:10:00.316Z,0.30
2019-04-28T14:14:04.408Z,0.50
2019-04-28T14:18:08.638Z,1.70
2019-04-28T14:22:12.756Z,0.60
2019-04-28T14:26:16.806Z,0.47
2019-04-28T14:30:20.885Z,0.63
2019-04-28T14:34:24.993Z,0.50
2019-04-28T14:38:29.105Z,1.40
2019-04-28T14:42:33.253Z,1.40
2019-04-28T14:46:37.292Z,1.10
2019-04-28T14:50:41.439Z,0.83
2019-04-28T14:54:45.534Z,0.53
2019-04-28T14:58:49.732Z,0.43
2019-04-28T15:02:58.985Z,0.90
2019-04-28T15:07:08.546Z,0.50
2019-04-28T15:11:18.727Z,1.10
2019-04-28T15:15:23.002Z,1.07
2019-04-28T15:19:27.128Z,0.20
2019-04-28T15:23:31.340Z,0.20
2019-04-28T15:27:35.466Z,0.30
2019-04-28T15:31:39.723Z,0.20
2019-04-28T15:35:43.737Z,0.30
2019-04-28T15:39:47.914Z,1.87
2019-04-28T15:43:51.999Z,0.47
2019-04-28T15:47:56.003Z,0.90
2019-04-28T15:52:00.499Z,0.73
2019-04-28T15:56:11.268Z,0.50
2019-04-28T16:00:15.332Z,0.60
2019-04-28T16:04:19.436Z,0.30
2019-04-28T16:08:23.675Z,0.40
2019-04-28T16:12:28.793Z,0.30
2019-04-28T16:16:32.951Z,0.70
2019-04-28T16:20:36.963Z,1.13
2019-04-28T16:24:41.097Z,0.50
2019-04-28T16:28:45.093Z,0.60
2019-04-28T16:32:50.171Z,0.87
2019-04-28T16:36:54.267Z,0.30
2019-04-28T16:40:59.582Z,0.83
2019-04-28T16:45:04.872Z,0.43
2019-04-28T16:49:08.940Z,0.20
2019-04-28T16:53:13.800Z,0.57
2019-04-28T16:57:38.092Z,0.63
2019-04-28T17:01:48.628Z,0.30
2019-04-28T17:05:52.650Z,0.30
2019-04-28T17:09:56.623Z,0.50
2019-04-28T17:14:00.708Z,2.67
2019-04-28T17:18:11.403Z,0.60
2019-04-28T17:22:15.599Z,1.20
2019-04-28T17:26:19.762Z,0.70
2019-04-28T17:30:24.584Z,0.60
2019-04-28T17:34:28.653Z,0.20
2019-04-28T17:38:32.765Z,0.30
2019-04-28T17:42:36.860Z,1.13
2019-04-28T17:46:41.137Z,0.40
2019-04-28T17:50:45.420Z,0.30
2019-04-28T17:54:49.598Z,1.33
2019-04-28T17:58:53.588Z,0.20
2019-04-28T18:03:05.780Z,4.50
2019-04-28T18:07:14.409Z,9.73
2019-04-28T18:11:18.592Z,5.20
2019-04-28T18:15:38.692Z,1.67
2019-04-28T18:19:43.739Z,1.07
2019-04-28T18:23:47.892Z,0.70
2019-04-28T18:27:51.892Z,1.10
2019-04-28T18:32:07.448Z,0.63
2019-04-28T18:36:16.805Z,0.77
2019-04-28T18:40:40.122Z,2.43
2019-04-28T18:44:44.148Z,0.80
2019-04-28T18:48:48.259Z,0.60
2019-04-28T18:52:52.304Z,1.13
2019-04-28T18:56:56.376Z,0.70
2019-04-28T19:01:10.113Z,1.13
2019-04-28T19:05:14.202Z,0.80
2019-04-28T19:09:37.459Z,0.40
2019-04-28T19:13:47.785Z,0.60
2019-04-28T19:17:59.533Z,0.30
2019-04-28T19:22:03.761Z,0.30
2019-04-28T19:26:08.321Z,0.30
2019-04-28T19:30:13.832Z,0.40
2019-04-28T19:34:17.948Z,1.00
2019-04-28T19:38:21.967Z,0.90
2019-04-28T19:42:25.951Z,0.50
2019-04-28T19:46:30.147Z,0.67
2019-04-28T19:50:34.243Z,0.50
2019-04-28T19:54:40.339Z,0.77
2019-04-28T19:58:49.014Z,0.50
2019-04-28T20:02:53.063Z,0.60
2019-04-28T20:06:59.312Z,1.67
2019-04-28T20:11:04.624Z,1.13
2019-04-28T20:15:08.750Z,0.43
2019-04-28T20:19:12.708Z,1.13
2019-04-28T20:23:16.920Z,1.40
2019-04-28T20:27:21.052Z,0.60
2019-04-28T20:31:27.572Z,1.07
2019-04-28T20:35:38.048Z,0.60
2019-04-28T20:39:42.592Z,1.53
2019-04-28T20:43:46.629Z,2.40
2019-04-28T20:47:51.618Z,1.67
2019-04-28T20:51:56.686Z,3.17
2019-04-28T20:56:00.710Z,3.63
2019-04-28T21:00:05.072Z,4.13
2019-04-28T21:04:10.657Z,3.23
2019-04-28T21:08:14.848Z,2.27
2019-04-28T21:12:18.874Z,2.47
2019-04-28T21:16:22.975Z,0.60
2019-04-28T21:20:26.944Z,0.90
2019-04-28T21:24:31.035Z,1.20
2019-04-28T21:28:35.017Z,1.73
2019-04-28T21:32:39.118Z,1.73
2019-04-28T21:36:43.179Z,1.60
2019-04-28T21:40:47.168Z,2.80
2019-04-28T21:45:00.355Z,0.97
2019-04-28T21:49:16.726Z,0.77
2019-04-28T21:53:20.747Z,2.90
2019-04-28T21:57:24.868Z,0.57
2019-04-28T22:01:29.023Z,0.60
2019-04-28T22:05:33.250Z,0.80
2019-04-28T22:09:37.283Z,1.47
2019-04-28T22:13:42.735Z,0.60
2019-04-28T22:17:46.793Z,0.50
2019-04-28T22:21:50.747Z,0.90
2019-04-28T22:25:54.844Z,0.53
2019-04-28T22:29:58.814Z,0.40
2019-04-28T22:34:03.034Z,1.97
2019-04-28T22:38:07.030Z,2.03
2019-04-28T22:42:11.124Z,1.87
2019-04-28T22:46:14.992Z,2.63
2019-04-28T22:50:30.848Z,1.30
2019-04-28T22:54:41.008Z,1.27
2019-04-28T22:58:50.138Z,1.10
2019-04-28T23:02:55.354Z,1.43
2019-04-28T23:06:59.694Z,1.10
2019-04-28T23:11:03.867Z,0.80
2019-04-28T23:15:07.905Z,0.50
2019-04-28T23:19:13.939Z,0.73
2019-04-28T23:23:17.978Z,0.60
2019-04-28T23:27:22.093Z,1.17
2019-04-28T23:31:26.222Z,0.57
2019-04-28T23:35:30.372Z,2.17
2019-04-28T23:39:34.428Z,6.23
2019-04-28T23:43:38.422Z,3.93
2019-04-28T23:47:42.468Z,2.17
2019-04-28T23:51:55.555Z,1.30
2019-04-28T23:55:59.488Z,1.40
